Orange River — VRMY6 — position and weather

sailwx.info

Track history (hours):
 
Tides and Currents Weather Stations Pressure Air Temp Water Temp Dewpoint Dewpoint Depression Visibility Wind Speed Wind Dir Waves Ship Positions

Orange River

Last reported at 2018-Feb-01 10:24 UTC. Time now 2018-Feb-18 23:59 UTC.
Position N 49°39' W 003°52'.
Warning: this ship's position is 17 days out of date.

Length 190 m; draft 11 m.

Type: Cargo ship. MMSI: 477133300.

Date/timePositionNaut miles runAvg speedWind from/ knotsBaromVisibWave heightAir tempDewpointWater temp
2018-Feb-01 10:24N 49°39' W 003°52'513.6
2018-Feb-01 10:00N 49°42' W 003°45'713.1
2018-Feb-01 09:30N 49°45' W 003°37'612.0
2018-Feb-01 09:00N 49°48' W 003°28'611.5
2018-Feb-01 08:30N 49°50' W 003°20'1110.7
2018-Feb-01 07:30N 49°55' W 003°06'510.2
2018-Feb-01 07:00N 49°58' W 002°59'510.0
2018-Feb-01 06:30N 49°60' W 002°52'5 9.8
2018-Feb-01 06:00N 50°01' W 002°44'510.3
2018-Feb-01 05:30N 50°03' W 002°37'611.2
2018-Feb-01 04:57N 50°04' W 002°27'1813.2
2018-Feb-01 03:37N 50°10' W 002°01'915.1
2018-Feb-01 03:00N 50°13' W 001°47'815.7
2018-Feb-01 02:31N 50°15' W 001°36'815.3
2018-Feb-01 02:00N 50°17' W 001°24'815.2
2018-Feb-01 01:28N 50°19' W 001°12'815.0
2018-Feb-01 00:57N 50°21' W 000°60'614.0
2018-Feb-01 00:30N 50°23' W 000°51'713.2
2018-Feb-01 00:00N 50°24' W 000°41'1212.3
2018-Jan-31 23:00N 50°28' W 000°22'611.3
2018-Jan-31 22:30N 50°29' W 000°13'1510.0
2018-Jan-31 21:01N 50°32' E 000°10'5 9.6
2018-Jan-31 20:31N 50°33' E 000°17'5 9.9
2018-Jan-31 20:00N 50°34' E 000°25'510.5
2018-Jan-31 19:31N 50°36' E 000°33'611.2
2018-Jan-31 19:00N 50°38' E 000°41'612.5
2018-Jan-31 18:30N 50°42' E 000°49'713.6
2018-Jan-31 18:00N 50°46' E 000°57'714.1
2018-Jan-31 17:30N 50°51' E 001°05'714.2
2018-Jan-31 17:00N 50°57' E 001°12'713.6
2018-Jan-31 16:31N 51°01' E 001°20'612.8
2018-Jan-31 16:01N 51°05' E 001°29'612.0
2018-Jan-31 15:31N 51°08' E 001°36'611.3
2018-Jan-31 15:01N 51°12' E 001°43'510.6
2018-Jan-31 14:30N 51°16' E 001°48'1610.5
2018-Jan-31 13:00N 51°30' E 002°01'510.7
2018-Jan-31 12:30N 51°34' E 002°07'510.9
2018-Jan-31 12:00N 51°38' E 002°12'510.8
2018-Jan-31 11:30N 51°42' E 002°18'14011.8
2018-Jan-30 23:35N 53°50' E 003°54'31610.0
2018-Jan-29 15:48N 57°49' E 010°03'311.2
2018-Jan-29 15:30N 57°50' E 010°09'611.2
2018-Jan-29 15:01N 57°50' E 010°19'510.9
2018-Jan-29 14:31N 57°51' E 010°29'510.7
2018-Jan-29 14:01N 57°51' E 010°39'5 9.9
2018-Jan-29 13:30N 57°49' E 010°48'4 8.5
2018-Jan-29 13:00N 57°46' E 010°54'3 5.2
2018-Jan-29 12:30N 57°44' E 010°52'2 4.5
2018-Jan-29 12:01N 57°42' E 010°50'2 4.7
2018-Jan-29 11:30N 57°40' E 010°52'510.6
2018-Jan-29 11:01N 57°38' E 011°01'510.9
2018-Jan-29 10:30N 57°36' E 011°11'611.9
2018-Jan-29 10:00N 57°32' E 011°19'612.5
2018-Jan-29 09:30N 57°27' E 011°27'713.7
2018-Jan-29 09:01N 57°21' E 011°32'713.4
2018-Jan-29 08:31N 57°15' E 011°36'713.7
2018-Jan-29 08:00N 57°08' E 011°39'713.7
2018-Jan-29 07:31N 57°02' E 011°43'713.5
2018-Jan-29 07:00N 56°55' E 011°48'9311.9
2018-Jan-28 23:12N 55°27' E 010°57'211.9
2018-Jan-28 23:00N 55°25' E 010°59'510.6
2018-Jan-28 22:30N 55°20' E 011°02'510.3
2018-Jan-28 22:00N 55°15' E 011°05'5 9.9
2018-Jan-28 21:30N 55°10' E 011°02'611.1
2018-Jan-28 21:00N 55°05' E 010°59'611.1
2018-Jan-28 20:30N 54°60' E 010°59'510.6
2018-Jan-28 20:00N 54°56' E 010°53'510.4
2018-Jan-28 19:30N 54°51' E 010°50'510.3
2018-Jan-28 19:00N 54°46' E 010°48'510.7
2018-Jan-28 18:30N 54°40' E 010°48'612.1
2018-Jan-28 18:00N 54°37' E 010°57'611.7
2018-Jan-28 17:30N 54°36' E 011°07'611.8
2018-Jan-28 17:00N 54°34' E 011°17'611.9
2018-Jan-28 16:30N 54°32' E 011°26'611.7
2018-Jan-28 16:00N 54°29' E 011°35'611.8
2018-Jan-28 15:30N 54°27' E 011°44'611.9
2018-Jan-28 15:00N 54°26' E 011°55'612.0
2018-Jan-28 14:30N 54°26' E 012°05'510.3
2018-Jan-28 14:00N 54°29' E 012°13'54 9.9
2018-Jan-28 08:32N 54°57' E 013°33'312.5
2018-Jan-28 08:16N 54°58' E 013°39'812.1
2018-Jan-28 07:38N 55°00' E 013°52'211.8
2018-Jan-28 07:30N 55°01' E 013°54'611.9
2018-Jan-28 07:00N 55°03' E 014°04'611.7
2018-Jan-28 06:29N 55°07' E 014°11'711.7
2018-Jan-28 05:53N 55°13' E 014°19'511.5
2018-Jan-28 05:28N 55°17' E 014°23'611.5
2018-Jan-28 04:59N 55°21' E 014°29'511.0
2018-Jan-28 04:30N 55°25' E 014°35'611.1
2018-Jan-28 04:00N 55°28' E 014°44'611.4
2018-Jan-28 03:30N 55°31' E 014°52'611.5
2018-Jan-28 03:00N 55°34' E 015°01'611.5
2018-Jan-28 02:30N 55°37' E 015°10'611.4
2018-Jan-28 02:00N 55°39' E 015°19'611.5
2018-Jan-28 01:30N 55°40' E 015°29'611.9
2018-Jan-28 01:00N 55°42' E 015°39'612.2
2018-Jan-28 00:30N 55°43' E 015°50'612.4
2018-Jan-28 00:00N 55°45' E 016°01'612.6
2018-Jan-27 23:30N 55°46' E 016°11'612.7
2018-Jan-27 23:00N 55°48' E 016°22'612.7
2018-Jan-27 22:30N 55°49' E 016°33'612.7
2018-Jan-27 22:00N 55°51' E 016°44'612.7
2018-Jan-27 21:30N 55°52' E 016°55'712.8
2018-Jan-27 20:56N 55°54' E 017°08'612.8
2018-Jan-27 20:30N 55°56' E 017°18'23512.6
2018-Jan-27 01:47N 59°06' E 021°34'1813.3
2018-Jan-27 00:26N 59°18' E 021°60'2013.2
2018-Jan-26 22:57N 59°30' E 022°31'613.3
2018-Jan-26 22:30N 59°31' E 022°42'813.1
2018-Jan-26 21:53N 59°34' E 022°57'513.1
2018-Jan-26 21:30N 59°36' E 023°07'713.1
2018-Jan-26 21:00N 59°38' E 023°19'713.0
2018-Jan-26 20:30N 59°39' E 023°31'713.0
2018-Jan-26 20:00N 59°41' E 023°44'613.0
2018-Jan-26 19:30N 59°42' E 023°57'612.9
2018-Jan-26 19:00N 59°44' E 024°09'510.6
2018-Jan-26 18:30N 59°41' E 024°18'713.3
2018-Jan-26 18:00N 59°39' E 024°31'510.0
2018-Jan-26 17:30N 59°38' E 024°41'3 6.3
2018-Jan-26 17:00N 59°39' E 024°47'2 4.7
2018-Jan-26 16:30N 59°41' E 024°48'4 7.9
2018-Jan-26 16:00N 59°45' E 024°48'3 5.8
2018-Jan-26 15:31N 59°47' E 024°51'3 6.6
2018-Jan-26 15:01N 59°50' E 024°54'5 9.3
2018-Jan-26 14:30N 59°51' E 025°03'5 9.4
2018-Jan-26 14:00N 59°52' E 025°12'611.1
2018-Jan-26 13:30N 59°53' E 025°23'713.3
2018-Jan-26 13:00N 59°54' E 025°36'613.0
2018-Jan-26 12:30N 59°55' E 025°49'1013.0
2018-Jan-26 11:42N 59°58' E 026°09'313.0
2018-Jan-26 11:30N 59°59' E 026°14'713.6
2018-Jan-26 11:00N 60°01' E 026°27'612.3
2018-Jan-26 10:30N 60°01' E 026°40'713.1
2018-Jan-26 09:59N 60°00' E 026°53'612.9
2018-Jan-26 09:30N 60°00' E 027°06'712.3
2018-Jan-26 08:56N 60°04' E 027°17'512.5
2018-Jan-26 08:30N 60°07' E 027°26'712.7
2018-Jan-26 07:58N 60°10' E 027°38'511.9
2018-Jan-26 07:30N 60°12' E 027°49'713.2
2018-Jan-26 07:00N 60°10' E 028°02'713.1
2018-Jan-26 06:30N 60°08' E 028°15'713.1
2018-Jan-26 06:00N 60°05' E 028°25'612.2
2018-Jan-26 05:30N 60°03' E 028°37'510.7
2018-Jan-26 05:00N 60°03' E 028°48'510.7
2018-Jan-26 04:30N 60°03' E 028°58'510.0
2018-Jan-26 04:00N 60°02' E 029°09'5 9.5
2018-Jan-26 03:30N 60°02' E 029°18'4 8.0
2018-Jan-26 02:59N 60°02' E 029°26'2 3.5
2018-Jan-26 02:30N 60°02' E 029°30'3 6.5
2018-Jan-26 01:59N 60°00' E 029°36'4 7.7
2018-Jan-26 01:30N 59°59' E 029°43'4 7.3
2018-Jan-26 01:00N 59°57' E 029°49'3 6.5
2018-Jan-26 00:30N 59°56' E 029°55'3 5.8
2018-Jan-26 00:00N 59°55' E 030°01'3 6.7
2018-Jan-25 23:31N 59°54' E 030°07'2 4.6
2018-Jan-25 22:59N 59°53' E 030°11'0 0.0
2018-Jan-25 22:29N 59°53' E 030°11'0 0.2
2018-Jan-25 21:59N 59°53' E 030°11'0 0.0
2018-Jan-25 21:29N 59°53' E 030°11'0 0.0
2018-Jan-25 20:59N 59°53' E 030°11'0 0.0
2018-Jan-25 20:29N 59°53' E 030°11'0 0.0
2018-Jan-25 19:59N 59°53' E 030°11'0 0.0
2018-Jan-25 19:29N 59°53' E 030°11'0 0.0
2018-Jan-25 18:59N 59°53' E 030°11'0 0.0
2018-Jan-25 18:29N 59°53' E 030°11'0 0.0
2018-Jan-25 17:59N 59°53' E 030°11'0 0.0
2018-Jan-25 17:29N 59°53' E 030°11'0 0.1
2018-Jan-25 16:59N 59°53' E 030°11'0 0.1
2018-Jan-25 16:29N 59°53' E 030°11'0 0.0
2018-Jan-25 15:59N 59°53' E 030°11'0 0.0
2018-Jan-25 15:29N 59°53' E 030°11'0 0.0
2018-Jan-25 14:59N 59°53' E 030°11'0 0.0
2018-Jan-25 14:29N 59°53' E 030°11'0 0.0
2018-Jan-25 13:59N 59°53' E 030°11'0 0.0
2018-Jan-25 13:29N 59°53' E 030°11'0 0.0
2018-Jan-25 12:59N 59°53' E 030°11'0 0.0
2018-Jan-25 12:29N 59°53' E 030°11'0 0.0
2018-Jan-25 11:59N 59°53' E 030°11'0 0.0
2018-Jan-25 11:29N 59°53' E 030°11'0 0.0
2018-Jan-25 10:59N 59°53' E 030°11'0 0.0
2018-Jan-25 10:29N 59°53' E 030°11'0 0.0
2018-Jan-25 09:59N 59°53' E 030°11'0 0.0
2018-Jan-25 09:23N 59°53' E 030°11'0 0.0
2018-Jan-25 08:59N 59°53' E 030°11'0 0.0
2018-Jan-25 08:29N 59°53' E 030°11'0 0.0
2018-Jan-25 07:59N 59°53' E 030°11'0 0.0
2018-Jan-25 07:29N 59°53' E 030°11'0 0.0
2018-Jan-25 06:59N 59°53' E 030°11'0 0.0
2018-Jan-25 06:29N 59°53' E 030°11'0 0.0
2018-Jan-25 05:59N 59°53' E 030°11'0 0.0
2018-Jan-25 05:29N 59°53' E 030°11'0 0.0
2018-Jan-25 04:59N 59°53' E 030°11'0 0.0
2018-Jan-25 04:29N 59°53' E 030°11'0 0.0
2018-Jan-25 03:59N 59°53' E 030°11'0 0.0
2018-Jan-25 03:29N 59°53' E 030°11'0 0.0
2018-Jan-25 02:59N 59°53' E 030°11'0 0.1
2018-Jan-25 02:29N 59°53' E 030°11'0 0.0
2018-Jan-25 01:59N 59°53' E 030°11'0 0.0
2018-Jan-25 01:29N 59°53' E 030°11'0 0.0
2018-Jan-25 00:59N 59°53' E 030°11'0 0.0
2018-Jan-25 00:29N 59°53' E 030°11'0 0.0
2018-Jan-24 23:59N 59°53' E 030°11'0 0.0
2018-Jan-24 23:29N 59°53' E 030°11'0 0.0
2018-Jan-24 22:59N 59°53' E 030°11'0 0.1
2018-Jan-24 22:29N 59°53' E 030°11'0 0.0
2018-Jan-24 21:59N 59°53' E 030°11'0 0.0
2018-Jan-24 21:29N 59°53' E 030°11'0 0.0
2018-Jan-24 20:59N 59°53' E 030°11'0 0.0
2018-Jan-24 20:29N 59°53' E 030°11'0 0.0
2018-Jan-24 19:59N 59°53' E 030°11'0 0.0
2018-Jan-24 19:29N 59°53' E 030°11'0 0.0
2018-Jan-24 18:59N 59°53' E 030°11'0 0.0
2018-Jan-24 18:29N 59°53' E 030°11'0 0.0
2018-Jan-24 17:59N 59°53' E 030°11'0 0.0
2018-Jan-24 17:29N 59°53' E 030°11'0 0.1
2018-Jan-24 16:59N 59°53' E 030°11'0 0.1
2018-Jan-24 16:29N 59°53' E 030°11'0 0.0
2018-Jan-24 15:59N 59°53' E 030°11'0 0.0
2018-Jan-24 15:29N 59°53' E 030°11'0 0.0
2018-Jan-24 14:59N 59°53' E 030°11'0 0.0
2018-Jan-24 14:29N 59°53' E 030°11'0 0.0
2018-Jan-24 13:59N 59°53' E 030°11'0 0.0
2018-Jan-24 13:29N 59°53' E 030°11'0 0.0
2018-Jan-24 12:59N 59°53' E 030°11'0 0.0
2018-Jan-24 12:29N 59°53' E 030°11'0 0.0
2018-Jan-24 11:59N 59°53' E 030°11'0 0.0
2018-Jan-24 11:29N 59°53' E 030°11'0 0.0
2018-Jan-24 10:59N 59°53' E 030°11'0 0.0
2018-Jan-24 10:29N 59°53' E 030°11'0 0.0
2018-Jan-24 09:59N 59°53' E 030°11'0 0.0
2018-Jan-24 09:29N 59°53' E 030°11'0 0.0
2018-Jan-24 08:59N 59°53' E 030°11'0 0.0
2018-Jan-24 08:23N 59°53' E 030°11'0 0.0
2018-Jan-24 07:59N 59°53' E 030°11'0 0.0
2018-Jan-24 07:29N 59°53' E 030°11'0 0.0
2018-Jan-24 06:59N 59°53' E 030°11'0 0.0
2018-Jan-24 06:29N 59°53' E 030°11'0 0.0
2018-Jan-24 05:59N 59°53' E 030°11'0 0.0
2018-Jan-24 05:29N 59°53' E 030°11'0 0.0
2018-Jan-24 04:59N 59°53' E 030°11'0 0.0
2018-Jan-24 04:29N 59°53' E 030°11'0 0.0
2018-Jan-24 03:59N 59°53' E 030°11'0 0.0
2018-Jan-24 03:29N 59°53' E 030°11'0 0.0
2018-Jan-24 02:59N 59°53' E 030°11'0 0.0
2018-Jan-24 02:29N 59°53' E 030°11'0 0.0
2018-Jan-24 01:59N 59°53' E 030°11'0 0.0
2018-Jan-24 01:29N 59°53' E 030°11'0 0.0
2018-Jan-24 00:59N 59°53' E 030°11'0 0.0
2018-Jan-24 00:29N 59°53' E 030°11'0 0.0
2018-Jan-23 23:59N 59°53' E 030°11'0 0.0
2018-Jan-23 23:29N 59°53' E 030°11'0 0.0
2018-Jan-23 22:59N 59°53' E 030°11'0 0.0
2018-Jan-23 22:29N 59°53' E 030°11'0 0.0
2018-Jan-23 21:59N 59°53' E 030°11'0 0.0
2018-Jan-23 21:29N 59°53' E 030°11'0 0.0
2018-Jan-23 20:59N 59°53' E 030°11'0 0.0
2018-Jan-23 20:29N 59°53' E 030°11'0 0.0
2018-Jan-23 19:59N 59°53' E 030°11'0 0.0
2018-Jan-23 19:30N 59°53' E 030°11'0 0.0
2018-Jan-23 19:01N 59°53' E 030°11'0 0.0
2018-Jan-23 18:31N 59°53' E 030°11'0 0.0
2018-Jan-23 18:01N 59°53' E 030°11'0 0.4
2018-Jan-23 17:31N 59°53' E 030°12'1 2.7
2018-Jan-23 17:01N 59°53' E 030°09'4 7.2
2018-Jan-23 16:31N 59°55' E 030°03'4 7.4
2018-Jan-23 16:00N 59°56' E 029°56'5 9.2
2018-Jan-23 15:30N 59°58' E 029°47'4 8.3
2018-Jan-23 15:01N 59°60' E 029°40'4 8.6
2018-Jan-23 14:30N 60°01' E 029°32'2 4.7
2018-Jan-23 14:00N 60°02' E 029°27'2 3.8
2018-Jan-23 13:30N 60°01' E 029°23'1 3.0
2018-Jan-23 13:00N 60°02' E 029°20'2 1.5
2018-Jan-23 11:54N 60°03' E 029°19'0 0.2
2018-Jan-23 11:28N 60°03' E 029°19'1 2.0
2018-Jan-23 11:00N 60°04' E 029°18'1 1.5
2018-Jan-23 10:18N 60°04' E 029°16'0 0.0
2018-Jan-23 09:47N 60°04' E 029°16'0 0.0
2018-Jan-23 09:30N 60°04' E 029°16'0 0.0
2018-Jan-23 09:00N 60°04' E 029°16'0 0.0
2018-Jan-23 08:29N 60°04' E 029°16'0 0.1
2018-Jan-23 08:00N 60°04' E 029°16'0 0.0
2018-Jan-23 07:18N 60°04' E 029°16'0 0.0
2018-Jan-23 07:01N 60°04' E 029°16'0 0.0
2018-Jan-23 06:31N 60°04' E 029°16'0 0.0
2018-Jan-23 06:00N 60°04' E 029°16'0 0.0
2018-Jan-23 05:31N 60°04' E 029°16'0 0.0
2018-Jan-23 05:01N 60°04' E 029°16'0 0.0
2018-Jan-23 04:31N 60°04' E 029°16'0 0.1
2018-Jan-23 04:01N 60°04' E 029°15'0 0.1
2018-Jan-23 03:30N 60°04' E 029°15'0 0.0
2018-Jan-23 03:00N 60°04' E 029°15'0 0.1
2018-Jan-23 02:31N 60°04' E 029°15'0 0.1
2018-Jan-23 02:01N 60°04' E 029°15'0 0.1
2018-Jan-23 01:30N 60°04' E 029°15'0 0.0
2018-Jan-23 01:00N 60°04' E 029°15'0 0.1
2018-Jan-23 00:30N 60°04' E 029°15'0 0.0
2018-Jan-23 00:00N 60°04' E 029°15'0 0.1
2018-Jan-22 23:30N 60°04' E 029°15'0 0.1
2018-Jan-22 23:00N 60°04' E 029°15'0 0.0
2018-Jan-22 22:30N 60°04' E 029°15'0 0.1
2018-Jan-22 22:00N 60°04' E 029°15'0 0.1
2018-Jan-22 21:30N 60°04' E 029°15'0 0.1
2018-Jan-22 20:57N 60°04' E 029°15'0 0.1
2018-Jan-22 20:30N 60°04' E 029°15'0 0.1
2018-Jan-22 20:00N 60°04' E 029°16'0 0.1
2018-Jan-22 19:30N 60°04' E 029°16'0 0.1
2018-Jan-22 19:00N 60°04' E 029°16'0 0.1
2018-Jan-22 18:30N 60°04' E 029°16'0 0.1
2018-Jan-22 18:00N 60°04' E 029°16'0 0.1
2018-Jan-22 17:30N 60°04' E 029°16'0 0.1
2018-Jan-22 17:01N 60°04' E 029°16'0 0.1
2018-Jan-22 16:31N 60°05' E 029°16'0 0.0
2018-Jan-22 16:01N 60°05' E 029°16'0 0.0
2018-Jan-22 15:31N 60°05' E 029°16'0 0.1
2018-Jan-22 15:00N 60°05' E 029°16'0 0.2
2018-Jan-22 14:30N 60°05' E 029°16'0 0.2
2018-Jan-22 14:00N 60°05' E 029°17'0 0.3
2018-Jan-22 13:31N 60°05' E 029°17'0 0.3
2018-Jan-22 13:00N 60°05' E 029°17'0 0.3
2018-Jan-22 12:30N 60°05' E 029°17'0 0.3
2018-Jan-22 12:01N 60°05' E 029°18'0 0.3
2018-Jan-22 11:30N 60°05' E 029°18'0 0.3
2018-Jan-22 11:01N 60°05' E 029°18'0 0.2
2018-Jan-22 10:31N 60°05' E 029°18'  
Track history (hours):
 
Tides and Currents Weather Stations Pressure Air Temp Water Temp Dewpoint Dewpoint Depression Visibility Wind Speed Wind Dir Waves Ship Positions

Orange River

Last reported at 2018-Feb-01 10:24 UTC. Time now 2018-Feb-18 23:59 UTC.
Position N 49°39' W 003°52'.
Warning: this ship's position is 17 days out of date.

Length 190 m; draft 11 m.

Type: Cargo ship. MMSI: 477133300.

Date/timePositionNaut miles runAvg speedWind from/ knotsBaromVisibWave heightAir tempDewpointWater temp
2018-Feb-01 10:24N 49°39' W 003°52'513.6
2018-Feb-01 10:00N 49°42' W 003°45'713.1
2018-Feb-01 09:30N 49°45' W 003°37'612.0
2018-Feb-01 09:00N 49°48' W 003°28'611.5
2018-Feb-01 08:30N 49°50' W 003°20'1110.7
2018-Feb-01 07:30N 49°55' W 003°06'510.2
2018-Feb-01 07:00N 49°58' W 002°59'510.0
2018-Feb-01 06:30N 49°60' W 002°52'5 9.8
2018-Feb-01 06:00N 50°01' W 002°44'510.3
2018-Feb-01 05:30N 50°03' W 002°37'611.2
2018-Feb-01 04:57N 50°04' W 002°27'1813.2
2018-Feb-01 03:37N 50°10' W 002°01'915.1
2018-Feb-01 03:00N 50°13' W 001°47'815.7
2018-Feb-01 02:31N 50°15' W 001°36'815.3
2018-Feb-01 02:00N 50°17' W 001°24'815.2
2018-Feb-01 01:28N 50°19' W 001°12'815.0
2018-Feb-01 00:57N 50°21' W 000°60'614.0
2018-Feb-01 00:30N 50°23' W 000°51'713.2
2018-Feb-01 00:00N 50°24' W 000°41'1212.3
2018-Jan-31 23:00N 50°28' W 000°22'611.3
2018-Jan-31 22:30N 50°29' W 000°13'1510.0
2018-Jan-31 21:01N 50°32' E 000°10'5 9.6
2018-Jan-31 20:31N 50°33' E 000°17'5 9.9
2018-Jan-31 20:00N 50°34' E 000°25'510.5
2018-Jan-31 19:31N 50°36' E 000°33'611.2
2018-Jan-31 19:00N 50°38' E 000°41'612.5
2018-Jan-31 18:30N 50°42' E 000°49'713.6
2018-Jan-31 18:00N 50°46' E 000°57'714.1
2018-Jan-31 17:30N 50°51' E 001°05'714.2
2018-Jan-31 17:00N 50°57' E 001°12'713.6
2018-Jan-31 16:31N 51°01' E 001°20'612.8
2018-Jan-31 16:01N 51°05' E 001°29'612.0
2018-Jan-31 15:31N 51°08' E 001°36'611.3
2018-Jan-31 15:01N 51°12' E 001°43'510.6
2018-Jan-31 14:30N 51°16' E 001°48'1610.5
2018-Jan-31 13:00N 51°30' E 002°01'510.7
2018-Jan-31 12:30N 51°34' E 002°07'510.9
2018-Jan-31 12:00N 51°38' E 002°12'510.8
2018-Jan-31 11:30N 51°42' E 002°18'14011.8
2018-Jan-30 23:35N 53°50' E 003°54'31610.0
2018-Jan-29 15:48N 57°49' E 010°03'311.2
2018-Jan-29 15:30N 57°50' E 010°09'611.2
2018-Jan-29 15:01N 57°50' E 010°19'510.9
2018-Jan-29 14:31N 57°51' E 010°29'510.7
2018-Jan-29 14:01N 57°51' E 010°39'5 9.9
2018-Jan-29 13:30N 57°49' E 010°48'4 8.5
2018-Jan-29 13:00N 57°46' E 010°54'3 5.2
2018-Jan-29 12:30N 57°44' E 010°52'2 4.5
2018-Jan-29 12:01N 57°42' E 010°50'2 4.7
2018-Jan-29 11:30N 57°40' E 010°52'510.6
2018-Jan-29 11:01N 57°38' E 011°01'510.9
2018-Jan-29 10:30N 57°36' E 011°11'611.9
2018-Jan-29 10:00N 57°32' E 011°19'612.5
2018-Jan-29 09:30N 57°27' E 011°27'713.7
2018-Jan-29 09:01N 57°21' E 011°32'713.4
2018-Jan-29 08:31N 57°15' E 011°36'713.7
2018-Jan-29 08:00N 57°08' E 011°39'713.7
2018-Jan-29 07:31N 57°02' E 011°43'713.5
2018-Jan-29 07:00N 56°55' E 011°48'9311.9
2018-Jan-28 23:12N 55°27' E 010°57'211.9
2018-Jan-28 23:00N 55°25' E 010°59'510.6
2018-Jan-28 22:30N 55°20' E 011°02'510.3
2018-Jan-28 22:00N 55°15' E 011°05'5 9.9
2018-Jan-28 21:30N 55°10' E 011°02'611.1
2018-Jan-28 21:00N 55°05' E 010°59'611.1
2018-Jan-28 20:30N 54°60' E 010°59'510.6
2018-Jan-28 20:00N 54°56' E 010°53'510.4
2018-Jan-28 19:30N 54°51' E 010°50'510.3
2018-Jan-28 19:00N 54°46' E 010°48'510.7
2018-Jan-28 18:30N 54°40' E 010°48'612.1
2018-Jan-28 18:00N 54°37' E 010°57'611.7
2018-Jan-28 17:30N 54°36' E 011°07'611.8
2018-Jan-28 17:00N 54°34' E 011°17'611.9
2018-Jan-28 16:30N 54°32' E 011°26'611.7
2018-Jan-28 16:00N 54°29' E 011°35'611.8
2018-Jan-28 15:30N 54°27' E 011°44'611.9
2018-Jan-28 15:00N 54°26' E 011°55'612.0
2018-Jan-28 14:30N 54°26' E 012°05'510.3
2018-Jan-28 14:00N 54°29' E 012°13'54 9.9
2018-Jan-28 08:32N 54°57' E 013°33'312.5
2018-Jan-28 08:16N 54°58' E 013°39'812.1
2018-Jan-28 07:38N 55°00' E 013°52'211.8
2018-Jan-28 07:30N 55°01' E 013°54'611.9
2018-Jan-28 07:00N 55°03' E 014°04'611.7
2018-Jan-28 06:29N 55°07' E 014°11'711.7
2018-Jan-28 05:53N 55°13' E 014°19'511.5
2018-Jan-28 05:28N 55°17' E 014°23'611.5
2018-Jan-28 04:59N 55°21' E 014°29'511.0
2018-Jan-28 04:30N 55°25' E 014°35'611.1
2018-Jan-28 04:00N 55°28' E 014°44'611.4
2018-Jan-28 03:30N 55°31' E 014°52'611.5
2018-Jan-28 03:00N 55°34' E 015°01'611.5
2018-Jan-28 02:30N 55°37' E 015°10'611.4
2018-Jan-28 02:00N 55°39' E 015°19'611.5
2018-Jan-28 01:30N 55°40' E 015°29'611.9
2018-Jan-28 01:00N 55°42' E 015°39'612.2
2018-Jan-28 00:30N 55°43' E 015°50'612.4
2018-Jan-28 00:00N 55°45' E 016°01'612.6
2018-Jan-27 23:30N 55°46' E 016°11'612.7
2018-Jan-27 23:00N 55°48' E 016°22'612.7
2018-Jan-27 22:30N 55°49' E 016°33'612.7
2018-Jan-27 22:00N 55°51' E 016°44'612.7
2018-Jan-27 21:30N 55°52' E 016°55'712.8
2018-Jan-27 20:56N 55°54' E 017°08'612.8
2018-Jan-27 20:30N 55°56' E 017°18'23512.6
2018-Jan-27 01:47N 59°06' E 021°34'1813.3
2018-Jan-27 00:26N 59°18' E 021°60'2013.2
2018-Jan-26 22:57N 59°30' E 022°31'613.3
2018-Jan-26 22:30N 59°31' E 022°42'813.1
2018-Jan-26 21:53N 59°34' E 022°57'513.1
2018-Jan-26 21:30N 59°36' E 023°07'713.1
2018-Jan-26 21:00N 59°38' E 023°19'713.0
2018-Jan-26 20:30N 59°39' E 023°31'713.0
2018-Jan-26 20:00N 59°41' E 023°44'613.0
2018-Jan-26 19:30N 59°42' E 023°57'612.9
2018-Jan-26 19:00N 59°44' E 024°09'510.6
2018-Jan-26 18:30N 59°41' E 024°18'713.3
2018-Jan-26 18:00N 59°39' E 024°31'510.0
2018-Jan-26 17:30N 59°38' E 024°41'3 6.3
2018-Jan-26 17:00N 59°39' E 024°47'2 4.7
2018-Jan-26 16:30N 59°41' E 024°48'4 7.9
2018-Jan-26 16:00N 59°45' E 024°48'3 5.8
2018-Jan-26 15:31N 59°47' E 024°51'3 6.6
2018-Jan-26 15:01N 59°50' E 024°54'5 9.3
2018-Jan-26 14:30N 59°51' E 025°03'5 9.4
2018-Jan-26 14:00N 59°52' E 025°12'611.1
2018-Jan-26 13:30N 59°53' E 025°23'713.3
2018-Jan-26 13:00N 59°54' E 025°36'613.0
2018-Jan-26 12:30N 59°55' E 025°49'1013.0
2018-Jan-26 11:42N 59°58' E 026°09'313.0
2018-Jan-26 11:30N 59°59' E 026°14'713.6
2018-Jan-26 11:00N 60°01' E 026°27'612.3
2018-Jan-26 10:30N 60°01' E 026°40'713.1
2018-Jan-26 09:59N 60°00' E 026°53'612.9
2018-Jan-26 09:30N 60°00' E 027°06'712.3
2018-Jan-26 08:56N 60°04' E 027°17'512.5
2018-Jan-26 08:30N 60°07' E 027°26'712.7
2018-Jan-26 07:58N 60°10' E 027°38'511.9
2018-Jan-26 07:30N 60°12' E 027°49'713.2
2018-Jan-26 07:00N 60°10' E 028°02'713.1
2018-Jan-26 06:30N 60°08' E 028°15'713.1
2018-Jan-26 06:00N 60°05' E 028°25'612.2
2018-Jan-26 05:30N 60°03' E 028°37'510.7
2018-Jan-26 05:00N 60°03' E 028°48'510.7
2018-Jan-26 04:30N 60°03' E 028°58'510.0
2018-Jan-26 04:00N 60°02' E 029°09'5 9.5
2018-Jan-26 03:30N 60°02' E 029°18'4 8.0
2018-Jan-26 02:59N 60°02' E 029°26'2 3.5
2018-Jan-26 02:30N 60°02' E 029°30'3 6.5
2018-Jan-26 01:59N 60°00' E 029°36'4 7.7
2018-Jan-26 01:30N 59°59' E 029°43'4 7.3
2018-Jan-26 01:00N 59°57' E 029°49'3 6.5
2018-Jan-26 00:30N 59°56' E 029°55'3 5.8
2018-Jan-26 00:00N 59°55' E 030°01'3 6.7
2018-Jan-25 23:31N 59°54' E 030°07'2 4.6
2018-Jan-25 22:59N 59°53' E 030°11'0 0.0
2018-Jan-25 22:29N 59°53' E 030°11'0 0.2
2018-Jan-25 21:59N 59°53' E 030°11'0 0.0
2018-Jan-25 21:29N 59°53' E 030°11'0 0.0
2018-Jan-25 20:59N 59°53' E 030°11'0 0.0
2018-Jan-25 20:29N 59°53' E 030°11'0 0.0
2018-Jan-25 19:59N 59°53' E 030°11'0 0.0
2018-Jan-25 19:29N 59°53' E 030°11'0 0.0
2018-Jan-25 18:59N 59°53' E 030°11'0 0.0
2018-Jan-25 18:29N 59°53' E 030°11'0 0.0
2018-Jan-25 17:59N 59°53' E 030°11'0 0.0
2018-Jan-25 17:29N 59°53' E 030°11'0 0.1
2018-Jan-25 16:59N 59°53' E 030°11'0 0.1
2018-Jan-25 16:29N 59°53' E 030°11'0 0.0
2018-Jan-25 15:59N 59°53' E 030°11'0 0.0
2018-Jan-25 15:29N 59°53' E 030°11'0 0.0
2018-Jan-25 14:59N 59°53' E 030°11'0 0.0
2018-Jan-25 14:29N 59°53' E 030°11'0 0.0
2018-Jan-25 13:59N 59°53' E 030°11'0 0.0
2018-Jan-25 13:29N 59°53' E 030°11'0 0.0
2018-Jan-25 12:59N 59°53' E 030°11'0 0.0
2018-Jan-25 12:29N 59°53' E 030°11'0 0.0
2018-Jan-25 11:59N 59°53' E 030°11'0 0.0
2018-Jan-25 11:29N 59°53' E 030°11'0 0.0
2018-Jan-25 10:59N 59°53' E 030°11'0 0.0
2018-Jan-25 10:29N 59°53' E 030°11'0 0.0
2018-Jan-25 09:59N 59°53' E 030°11'0 0.0
2018-Jan-25 09:23N 59°53' E 030°11'0 0.0
2018-Jan-25 08:59N 59°53' E 030°11'0 0.0
2018-Jan-25 08:29N 59°53' E 030°11'0 0.0
2018-Jan-25 07:59N 59°53' E 030°11'0 0.0
2018-Jan-25 07:29N 59°53' E 030°11'0 0.0
2018-Jan-25 06:59N 59°53' E 030°11'0 0.0
2018-Jan-25 06:29N 59°53' E 030°11'0 0.0
2018-Jan-25 05:59N 59°53' E 030°11'0 0.0
2018-Jan-25 05:29N 59°53' E 030°11'0 0.0
2018-Jan-25 04:59N 59°53' E 030°11'0 0.0
2018-Jan-25 04:29N 59°53' E 030°11'0 0.0
2018-Jan-25 03:59N 59°53' E 030°11'0 0.0
2018-Jan-25 03:29N 59°53' E 030°11'0 0.0
2018-Jan-25 02:59N 59°53' E 030°11'0 0.1
2018-Jan-25 02:29N 59°53' E 030°11'0 0.0
2018-Jan-25 01:59N 59°53' E 030°11'0 0.0
2018-Jan-25 01:29N 59°53' E 030°11'0 0.0
2018-Jan-25 00:59N 59°53' E 030°11'0 0.0
2018-Jan-25 00:29N 59°53' E 030°11'0 0.0
2018-Jan-24 23:59N 59°53' E 030°11'0 0.0
2018-Jan-24 23:29N 59°53' E 030°11'0 0.0
2018-Jan-24 22:59N 59°53' E 030°11'0 0.1
2018-Jan-24 22:29N 59°53' E 030°11'0 0.0
2018-Jan-24 21:59N 59°53' E 030°11'0 0.0
2018-Jan-24 21:29N 59°53' E 030°11'0 0.0
2018-Jan-24 20:59N 59°53' E 030°11'0 0.0
2018-Jan-24 20:29N 59°53' E 030°11'0 0.0
2018-Jan-24 19:59N 59°53' E 030°11'0 0.0
2018-Jan-24 19:29N 59°53' E 030°11'0 0.0
2018-Jan-24 18:59N 59°53' E 030°11'0 0.0
2018-Jan-24 18:29N 59°53' E 030°11'0 0.0
2018-Jan-24 17:59N 59°53' E 030°11'0 0.0
2018-Jan-24 17:29N 59°53' E 030°11'0 0.1
2018-Jan-24 16:59N 59°53' E 030°11'0 0.1
2018-Jan-24 16:29N 59°53' E 030°11'0 0.0
2018-Jan-24 15:59N 59°53' E 030°11'0 0.0
2018-Jan-24 15:29N 59°53' E 030°11'0 0.0
2018-Jan-24 14:59N 59°53' E 030°11'0 0.0
2018-Jan-24 14:29N 59°53' E 030°11'0 0.0
2018-Jan-24 13:59N 59°53' E 030°11'0 0.0
2018-Jan-24 13:29N 59°53' E 030°11'0 0.0
2018-Jan-24 12:59N 59°53' E 030°11'0 0.0
2018-Jan-24 12:29N 59°53' E 030°11'0 0.0
2018-Jan-24 11:59N 59°53' E 030°11'0 0.0
2018-Jan-24 11:29N 59°53' E 030°11'0 0.0
2018-Jan-24 10:59N 59°53' E 030°11'0 0.0
2018-Jan-24 10:29N 59°53' E 030°11'0 0.0
2018-Jan-24 09:59N 59°53' E 030°11'0 0.0
2018-Jan-24 09:29N 59°53' E 030°11'0 0.0
2018-Jan-24 08:59N 59°53' E 030°11'0 0.0
2018-Jan-24 08:23N 59°53' E 030°11'0 0.0
2018-Jan-24 07:59N 59°53' E 030°11'0 0.0
2018-Jan-24 07:29N 59°53' E 030°11'0 0.0
2018-Jan-24 06:59N 59°53' E 030°11'0 0.0
2018-Jan-24 06:29N 59°53' E 030°11'0 0.0
2018-Jan-24 05:59N 59°53' E 030°11'0 0.0
2018-Jan-24 05:29N 59°53' E 030°11'0 0.0
2018-Jan-24 04:59N 59°53' E 030°11'0 0.0
2018-Jan-24 04:29N 59°53' E 030°11'0 0.0
2018-Jan-24 03:59N 59°53' E 030°11'0 0.0
2018-Jan-24 03:29N 59°53' E 030°11'0 0.0
2018-Jan-24 02:59N 59°53' E 030°11'0 0.0
2018-Jan-24 02:29N 59°53' E 030°11'0 0.0
2018-Jan-24 01:59N 59°53' E 030°11'0 0.0
2018-Jan-24 01:29N 59°53' E 030°11'0 0.0
2018-Jan-24 00:59N 59°53' E 030°11'0 0.0
2018-Jan-24 00:29N 59°53' E 030°11'0 0.0
2018-Jan-23 23:59N 59°53' E 030°11'0 0.0
2018-Jan-23 23:29N 59°53' E 030°11'0 0.0
2018-Jan-23 22:59N 59°53' E 030°11'0 0.0
2018-Jan-23 22:29N 59°53' E 030°11'0 0.0
2018-Jan-23 21:59N 59°53' E 030°11'0 0.0
2018-Jan-23 21:29N 59°53' E 030°11'0 0.0
2018-Jan-23 20:59N 59°53' E 030°11'0 0.0
2018-Jan-23 20:29N 59°53' E 030°11'0 0.0
2018-Jan-23 19:59N 59°53' E 030°11'0 0.0
2018-Jan-23 19:30N 59°53' E 030°11'0 0.0
2018-Jan-23 19:01N 59°53' E 030°11'0 0.0
2018-Jan-23 18:31N 59°53' E 030°11'0 0.0
2018-Jan-23 18:01N 59°53' E 030°11'0 0.4
2018-Jan-23 17:31N 59°53' E 030°12'1 2.7
2018-Jan-23 17:01N 59°53' E 030°09'4 7.2
2018-Jan-23 16:31N 59°55' E 030°03'4 7.4
2018-Jan-23 16:00N 59°56' E 029°56'5 9.2
2018-Jan-23 15:30N 59°58' E 029°47'4 8.3
2018-Jan-23 15:01N 59°60' E 029°40'4 8.6
2018-Jan-23 14:30N 60°01' E 029°32'2 4.7
2018-Jan-23 14:00N 60°02' E 029°27'2 3.8
2018-Jan-23 13:30N 60°01' E 029°23'1 3.0
2018-Jan-23 13:00N 60°02' E 029°20'2 1.5
2018-Jan-23 11:54N 60°03' E 029°19'0 0.2
2018-Jan-23 11:28N 60°03' E 029°19'1 2.0
2018-Jan-23 11:00N 60°04' E 029°18'1 1.5
2018-Jan-23 10:18N 60°04' E 029°16'0 0.0
2018-Jan-23 09:47N 60°04' E 029°16'0 0.0
2018-Jan-23 09:30N 60°04' E 029°16'0 0.0
2018-Jan-23 09:00N 60°04' E 029°16'0 0.0
2018-Jan-23 08:29N 60°04' E 029°16'0 0.1
2018-Jan-23 08:00N 60°04' E 029°16'0 0.0
2018-Jan-23 07:18N 60°04' E 029°16'0 0.0
2018-Jan-23 07:01N 60°04' E 029°16'0 0.0
2018-Jan-23 06:31N 60°04' E 029°16'0 0.0
2018-Jan-23 06:00N 60°04' E 029°16'0 0.0
2018-Jan-23 05:31N 60°04' E 029°16'0 0.0
2018-Jan-23 05:01N 60°04' E 029°16'0 0.0
2018-Jan-23 04:31N 60°04' E 029°16'0 0.1
2018-Jan-23 04:01N 60°04' E 029°15'0 0.1
2018-Jan-23 03:30N 60°04' E 029°15'0 0.0
2018-Jan-23 03:00N 60°04' E 029°15'0 0.1
2018-Jan-23 02:31N 60°04' E 029°15'0 0.1
2018-Jan-23 02:01N 60°04' E 029°15'0 0.1
2018-Jan-23 01:30N 60°04' E 029°15'0 0.0
2018-Jan-23 01:00N 60°04' E 029°15'0 0.1
2018-Jan-23 00:30N 60°04' E 029°15'0 0.0
2018-Jan-23 00:00N 60°04' E 029°15'0 0.1
2018-Jan-22 23:30N 60°04' E 029°15'0 0.1
2018-Jan-22 23:00N 60°04' E 029°15'0 0.0
2018-Jan-22 22:30N 60°04' E 029°15'0 0.1
2018-Jan-22 22:00N 60°04' E 029°15'0 0.1
2018-Jan-22 21:30N 60°04' E 029°15'0 0.1
2018-Jan-22 20:57N 60°04' E 029°15'0 0.1
2018-Jan-22 20:30N 60°04' E 029°15'0 0.1
2018-Jan-22 20:00N 60°04' E 029°16'0 0.1
2018-Jan-22 19:30N 60°04' E 029°16'0 0.1
2018-Jan-22 19:00N 60°04' E 029°16'0 0.1
2018-Jan-22 18:30N 60°04' E 029°16'0 0.1
2018-Jan-22 18:00N 60°04' E 029°16'0 0.1
2018-Jan-22 17:30N 60°04' E 029°16'0 0.1
2018-Jan-22 17:01N 60°04' E 029°16'0 0.1
2018-Jan-22 16:31N 60°05' E 029°16'0 0.0
2018-Jan-22 16:01N 60°05' E 029°16'0 0.0
2018-Jan-22 15:31N 60°05' E 029°16'0 0.1
2018-Jan-22 15:00N 60°05' E 029°16'0 0.2
2018-Jan-22 14:30N 60°05' E 029°16'0 0.2
2018-Jan-22 14:00N 60°05' E 029°17'0 0.3
2018-Jan-22 13:31N 60°05' E 029°17'0 0.3
2018-Jan-22 13:00N 60°05' E 029°17'0 0.3
2018-Jan-22 12:30N 60°05' E 029°17'0 0.3
2018-Jan-22 12:01N 60°05' E 029°18'0 0.3
2018-Jan-22 11:30N 60°05' E 029°18'0 0.3
2018-Jan-22 11:01N 60°05' E 029°18'0 0.2
2018-Jan-22 10:31N 60°05' E 029°18'  

Dump ship's entire track history